createdAt,value
2022-08-17T00:00:43.402Z,4.78
2022-08-17T00:03:41.915Z,3.95
2022-08-17T00:06:36.803Z,2.30
2022-08-17T00:09:25.694Z,4.22
2022-08-17T00:12:41.620Z,2.92
2022-08-17T00:15:24.065Z,3.17
2022-08-17T00:18:58.300Z,4.47
2022-08-17T00:21:23.772Z,4.15
2022-08-17T00:24:07.076Z,3.15
2022-08-17T00:26:55.783Z,3.88
2022-08-17T00:29:38.813Z,3.42
2022-08-17T00:33:11.611Z,3.95
2022-08-17T00:35:38.683Z,5.32
2022-08-17T00:38:28.213Z,4.20
2022-08-17T00:41:16.713Z,3.58
2022-08-17T00:44:19.670Z,4.97
2022-08-17T00:47:08.692Z,10.65
2022-08-17T00:49:51.141Z,5.30
2022-08-17T00:52:44.942Z,4.57
2022-08-17T00:55:28.353Z,5.18
2022-08-17T00:58:18.037Z,4.25
2022-08-17T01:01:21.689Z,8.30
2022-08-17T01:04:13.084Z,6.05
2022-08-17T01:06:57.106Z,4.47
2022-08-17T01:09:46.100Z,7.30
2022-08-17T01:12:29.676Z,6.50
2022-08-17T01:15:20.102Z,6.22
2022-08-17T01:18:02.097Z,7.63
2022-08-17T01:20:59.021Z,4.68
2022-08-17T01:23:49.968Z,4.22
2022-08-17T01:26:40.933Z,9.35
2022-08-17T01:29:24.812Z,4.78
2022-08-17T01:32:15.723Z,6.25
2022-08-17T01:34:58.175Z,4.78
2022-08-17T01:37:48.930Z,5.03
2022-08-17T01:40:40.186Z,6.22
2022-08-17T01:43:35.785Z,6.80
2022-08-17T01:46:29.681Z,7.63
2022-08-17T01:49:21.035Z,10.85
2022-08-17T01:52:04.309Z,5.38
2022-08-17T01:54:55.034Z,5.93
2022-08-17T01:57:37.331Z,6.78
2022-08-17T02:00:27.130Z,7.88
2022-08-17T02:03:31.121Z,5.20
2022-08-17T02:06:27.602Z,7.00
2022-08-17T02:09:12.208Z,9.25
2022-08-17T02:12:38.043Z,8.68
2022-08-17T02:15:18.060Z,11.52
2022-08-17T02:18:06.792Z,8.73
2022-08-17T02:20:56.693Z,9.77
2022-08-17T02:23:49.075Z,7.00
2022-08-17T02:26:31.031Z,6.93
2022-08-17T02:29:20.075Z,8.50
2022-08-17T02:32:02.592Z,8.88
2022-08-17T02:34:50.803Z,9.50
2022-08-17T02:37:34.249Z,7.47
2022-08-17T02:40:32.838Z,4.85
2022-08-17T02:43:18.307Z,8.02
2022-08-17T02:46:13.029Z,5.28
2022-08-17T02:49:01.788Z,8.40
2022-08-17T02:51:44.134Z,8.88
2022-08-17T02:54:40.267Z,5.15
2022-08-17T02:57:31.460Z,5.90
2022-08-17T03:00:18.499Z,5.60
2022-08-17T03:03:08.066Z,9.02
2022-08-17T03:05:54.476Z,8.55
2022-08-17T03:08:42.793Z,8.05
2022-08-17T03:11:25.234Z,6.90
2022-08-17T03:14:13.777Z,6.07
2022-08-17T03:16:55.981Z,12.65
2022-08-17T03:19:44.947Z,7.93
2022-08-17T03:22:38.245Z,7.05
2022-08-17T03:25:27.110Z,6.53
2022-08-17T03:28:16.927Z,5.93
2022-08-17T03:30:59.899Z,7.93
2022-08-17T03:33:49.032Z,9.43
2022-08-17T03:36:31.113Z,7.35
2022-08-17T03:39:25.050Z,7.90
2022-08-17T03:42:32.085Z,5.13
2022-08-17T03:45:25.041Z,8.55
2022-08-17T03:48:25.805Z,6.07
2022-08-17T03:51:33.578Z,8.95
2022-08-17T03:54:34.403Z,8.32
2022-08-17T03:57:22.776Z,7.78
2022-08-17T04:00:05.717Z,7.88
2022-08-17T04:02:55.036Z,5.97
2022-08-17T04:05:37.346Z,7.03
2022-08-17T04:08:25.781Z,5.57
2022-08-17T04:11:09.069Z,6.03
2022-08-17T04:13:57.776Z,7.13
2022-08-17T04:16:42.059Z,5.32
2022-08-17T04:19:31.041Z,13.60
2022-08-17T04:22:30.508Z,8.57
2022-08-17T04:25:27.078Z,13.02
2022-08-17T04:28:16.204Z,5.15
2022-08-17T04:31:04.817Z,13.55
2022-08-17T04:33:49.337Z,6.30
2022-08-17T04:36:37.759Z,7.03
2022-08-17T04:39:27.057Z,7.20
2022-08-17T04:42:17.943Z,9.98
2022-08-17T04:45:06.840Z,4.18
2022-08-17T04:47:56.291Z,4.90
2022-08-17T04:50:38.037Z,6.65
2022-08-17T04:53:20.954Z,6.25
2022-08-17T04:56:11.638Z,6.43
2022-08-17T04:59:09.574Z,4.03
2022-08-17T05:01:59.689Z,6.13
2022-08-17T05:04:48.685Z,3.63
2022-08-17T05:07:38.008Z,3.53
2022-08-17T05:10:20.974Z,3.53
2022-08-17T05:16:08.775Z,9.52
2022-08-17T05:18:50.955Z,3.80
2022-08-17T05:21:39.926Z,6.65
2022-08-17T05:24:42.879Z,5.22
2022-08-17T05:27:32.877Z,5.50
2022-08-17T05:30:17.203Z,4.32
2022-08-17T05:33:09.000Z,3.40
2022-08-17T05:35:54.364Z,4.40
2022-08-17T05:38:42.778Z,4.40
2022-08-17T05:41:25.046Z,3.97
2022-08-17T05:44:14.105Z,6.53
2022-08-17T05:47:03.200Z,7.57
2022-08-17T05:49:44.791Z,5.53
2022-08-17T05:52:49.293Z,2.70
2022-08-17T05:55:47.050Z,4.13
2022-08-17T05:58:46.372Z,2.88
2022-08-17T06:01:58.037Z,8.88
2022-08-17T06:05:17.348Z,5.35
2022-08-17T06:08:14.070Z,2.45
2022-08-17T06:11:17.216Z,3.30
2022-08-17T06:14:27.780Z,2.85
2022-08-17T06:17:22.903Z,5.38
2022-08-17T06:20:14.927Z,3.15
2022-08-17T06:23:05.120Z,3.13
2022-08-17T06:26:08.932Z,2.65
2022-08-17T06:29:03.895Z,3.28
2022-08-17T06:31:57.793Z,6.55
2022-08-17T06:34:41.170Z,6.40
2022-08-17T06:38:34.963Z,3.70
2022-08-17T06:41:38.839Z,3.65
2022-08-17T06:44:43.508Z,3.22
2022-08-17T06:47:49.928Z,7.05
2022-08-17T06:50:51.334Z,5.45
2022-08-17T06:53:52.793Z,7.43
2022-08-17T06:56:55.467Z,2.88
2022-08-17T06:59:55.456Z,5.38
2022-08-17T07:03:32.693Z,3.40
2022-08-17T07:06:25.302Z,8.77
2022-08-17T07:09:45.774Z,5.63
2022-08-17T07:12:44.924Z,4.40
2022-08-17T07:15:46.699Z,4.40
2022-08-17T07:18:39.148Z,2.35
2022-08-17T07:21:56.774Z,3.53
2022-08-17T07:24:50.061Z,4.72
2022-08-17T07:27:44.942Z,6.50
2022-08-17T07:30:30.063Z,7.32
2022-08-17T07:33:25.939Z,3.90
2022-08-17T07:36:08.060Z,4.18
2022-08-17T07:39:06.006Z,4.35
2022-08-17T07:41:59.102Z,10.88
2022-08-17T07:45:02.038Z,5.13
2022-08-17T07:48:24.639Z,4.18
2022-08-17T07:51:35.752Z,2.08
2022-08-17T07:54:24.117Z,4.55
2022-08-17T07:57:24.366Z,4.75
2022-08-17T08:00:16.227Z,8.20
2022-08-17T08:03:36.759Z,6.07
2022-08-17T08:06:32.315Z,2.03
2022-08-17T08:09:37.107Z,6.03
2022-08-17T08:12:48.300Z,2.47
2022-08-17T08:15:57.009Z,4.50
2022-08-17T08:18:55.506Z,10.20
2022-08-17T08:22:00.016Z,3.15
2022-08-17T08:24:45.313Z,3.95
2022-08-17T08:27:46.028Z,6.93
2022-08-17T08:30:29.545Z,8.82
2022-08-17T08:33:57.019Z,4.13
2022-08-17T08:41:06.019Z,6.43
2022-08-17T08:44:04.666Z,4.05
2022-08-17T08:47:03.016Z,3.72
2022-08-17T08:50:37.524Z,5.13
2022-08-17T08:53:51.061Z,9.82
2022-08-17T08:57:11.534Z,2.17
2022-08-17T09:00:13.035Z,2.67
2022-08-17T09:03:28.088Z,2.60
2022-08-17T09:06:49.773Z,2.17
2022-08-17T09:09:59.993Z,4.20
2022-08-17T09:13:09.495Z,4.97
2022-08-17T09:16:06.930Z,4.30
2022-08-17T09:19:03.865Z,4.78
2022-08-17T09:22:00.671Z,3.30
2022-08-17T09:25:24.032Z,2.50
2022-08-17T09:28:14.204Z,4.50
2022-08-17T09:31:11.824Z,3.25
2022-08-17T09:33:59.428Z,5.13
2022-08-17T09:37:03.781Z,4.32
2022-08-17T09:40:23.909Z,2.67
2022-08-17T09:43:24.687Z,3.42
2022-08-17T09:46:38.980Z,4.07
2022-08-17T09:49:41.677Z,7.65
2022-08-17T09:52:35.320Z,2.75
2022-08-17T09:55:23.913Z,3.97
2022-08-17T09:58:28.967Z,3.63
2022-08-17T10:01:44.059Z,3.25
2022-08-17T10:05:06.029Z,2.50
2022-08-17T10:08:07.013Z,4.15
2022-08-17T10:11:10.049Z,4.43
2022-08-17T10:14:36.228Z,3.45
2022-08-17T10:17:19.305Z,2.08
2022-08-17T10:20:12.008Z,8.68
2022-08-17T10:23:25.925Z,5.50
2022-08-17T10:29:14.299Z,6.85
2022-08-17T10:32:18.762Z,2.83
2022-08-17T10:35:21.233Z,6.13
2022-08-17T10:38:41.937Z,3.50
2022-08-17T10:41:45.357Z,3.17
2022-08-17T10:44:46.681Z,4.27
2022-08-17T10:48:15.669Z,4.55
2022-08-17T10:51:10.919Z,2.08
2022-08-17T10:54:09.856Z,5.72
2022-08-17T10:57:06.009Z,3.95
2022-08-17T10:59:48.736Z,3.30
2022-08-17T11:02:56.672Z,6.50
2022-08-17T11:06:03.172Z,2.88
2022-08-17T11:09:12.917Z,3.35
2022-08-17T11:12:22.095Z,4.50
2022-08-17T11:15:32.023Z,2.03
2022-08-17T11:18:29.071Z,3.78
2022-08-17T11:21:18.028Z,4.65
2022-08-17T11:24:36.209Z,3.10
2022-08-17T11:27:38.029Z,6.15
2022-08-17T11:30:43.492Z,3.40
2022-08-17T11:34:06.821Z,3.53
2022-08-17T11:37:24.873Z,3.90
2022-08-17T11:40:25.248Z,2.45
2022-08-17T11:43:17.933Z,6.20
2022-08-17T11:46:29.737Z,3.08
2022-08-17T11:50:02.284Z,4.82
2022-08-17T11:53:02.810Z,2.55
2022-08-17T11:55:51.475Z,2.85
2022-08-17T11:58:53.062Z,4.32
2022-08-17T12:01:56.838Z,8.07
2022-08-17T12:04:48.078Z,2.53
2022-08-17T12:07:33.458Z,3.58
2022-08-17T12:10:25.037Z,2.35
2022-08-17T12:13:19.302Z,4.43
2022-08-17T12:19:20.885Z,2.33
2022-08-17T12:22:30.020Z,2.33
2022-08-17T12:25:40.337Z,3.50
2022-08-17T12:28:46.109Z,2.10
2022-08-17T12:31:45.776Z,6.70
2022-08-17T12:35:01.781Z,3.03
2022-08-17T12:37:48.532Z,2.90
2022-08-17T12:40:41.678Z,7.20
2022-08-17T12:43:34.444Z,3.88
2022-08-17T12:46:26.013Z,2.42
2022-08-17T12:49:31.657Z,8.05
2022-08-17T12:52:35.691Z,5.35
2022-08-17T12:55:37.625Z,4.55
2022-08-17T12:58:38.936Z,6.25
2022-08-17T13:01:26.179Z,3.58
2022-08-17T13:04:14.886Z,5.78
2022-08-17T13:06:59.921Z,4.78
2022-08-17T13:09:57.997Z,6.60
2022-08-17T13:12:49.925Z,2.50
2022-08-17T13:15:50.641Z,4.15
2022-08-17T13:18:56.779Z,5.70
2022-08-17T13:21:45.185Z,3.95
2022-08-17T13:24:42.712Z,3.45
2022-08-17T13:27:35.015Z,2.47
2022-08-17T13:30:20.583Z,5.65
2022-08-17T13:33:12.000Z,3.00
2022-08-17T13:36:04.986Z,6.70
2022-08-17T13:38:55.179Z,5.65
2022-08-17T13:41:43.672Z,6.10
2022-08-17T13:44:40.031Z,5.93
2022-08-17T13:47:34.691Z,5.47
2022-08-17T13:50:30.018Z,3.17
2022-08-17T13:53:33.174Z,5.32
2022-08-17T13:56:39.536Z,10.20
2022-08-17T13:59:53.106Z,3.60
2022-08-17T14:05:32.031Z,3.83
2022-08-17T14:08:14.226Z,5.68
2022-08-17T14:11:06.785Z,6.22
2022-08-17T14:13:56.024Z,3.28
2022-08-17T14:16:48.691Z,8.35
2022-08-17T14:19:31.979Z,4.38
2022-08-17T14:22:31.661Z,11.20
2022-08-17T14:25:15.967Z,4.82
2022-08-17T14:28:05.783Z,9.18
2022-08-17T14:30:49.020Z,5.13
2022-08-17T14:33:38.043Z,5.15
2022-08-17T14:36:20.460Z,4.82
2022-08-17T14:39:09.062Z,7.32
2022-08-17T14:42:00.964Z,7.93
2022-08-17T14:44:50.043Z,8.32
2022-08-17T14:47:38.950Z,7.55
2022-08-17T14:50:28.850Z,8.65
2022-08-17T14:53:13.063Z,5.60
2022-08-17T14:56:09.121Z,9.10
2022-08-17T14:59:03.914Z,6.65
2022-08-17T15:01:55.057Z,8.63
2022-08-17T15:04:45.737Z,6.53
2022-08-17T15:07:30.755Z,12.40
2022-08-17T15:10:20.764Z,6.40
2022-08-17T15:13:10.085Z,7.30
2022-08-17T15:15:52.355Z,11.48
2022-08-17T15:18:43.618Z,7.25
2022-08-17T15:21:24.922Z,4.55
2022-08-17T15:24:14.102Z,5.70
2022-08-17T15:26:56.527Z,7.28
2022-08-17T15:29:45.288Z,7.40
2022-08-17T15:32:39.255Z,11.82
2022-08-17T15:35:28.976Z,7.18
2022-08-17T15:38:15.221Z,5.05
2022-08-17T15:41:05.690Z,6.57
2022-08-17T15:43:54.761Z,5.13
2022-08-17T15:46:38.264Z,7.75
2022-08-17T15:49:27.979Z,5.25
2022-08-17T15:52:48.102Z,8.82
2022-08-17T15:55:31.667Z,5.97
2022-08-17T15:58:21.068Z,10.02
2022-08-17T16:02:16.269Z,8.43
2022-08-17T16:04:31.662Z,6.68
2022-08-17T16:07:13.973Z,9.40
2022-08-17T16:10:04.677Z,9.65
2022-08-17T16:12:54.931Z,5.65
2022-08-17T16:15:37.313Z,11.48
2022-08-17T16:18:26.007Z,9.15
2022-08-17T16:21:43.203Z,7.05
2022-08-17T16:24:32.013Z,6.72
2022-08-17T16:27:14.528Z,9.70
2022-08-17T16:30:02.738Z,8.73
2022-08-17T16:32:51.976Z,7.32
2022-08-17T16:35:34.153Z,5.30
2022-08-17T16:38:22.663Z,9.80
2022-08-17T16:41:13.820Z,11.10
2022-08-17T16:44:02.672Z,7.50
2022-08-17T16:46:52.789Z,12.77
2022-08-17T16:49:37.332Z,11.00
2022-08-17T16:52:33.964Z,7.25
2022-08-17T16:55:18.329Z,7.40
2022-08-17T16:58:12.685Z,9.43
2022-08-17T17:01:01.200Z,8.38
2022-08-17T17:03:48.021Z,16.23
2022-08-17T17:06:46.934Z,10.15
2022-08-17T17:09:43.909Z,8.43
2022-08-17T17:13:02.041Z,10.27
2022-08-17T17:16:12.999Z,7.95
2022-08-17T17:22:23.792Z,9.93
2022-08-17T17:25:35.000Z,12.73
2022-08-17T17:28:23.991Z,13.55
2022-08-17T17:31:47.039Z,15.80
2022-08-17T17:34:30.006Z,12.20
2022-08-17T17:37:28.080Z,13.40
2022-08-17T17:40:17.047Z,9.98
2022-08-17T17:43:20.496Z,15.20
2022-08-17T17:46:28.512Z,12.35
2022-08-17T17:49:15.449Z,13.18
2022-08-17T17:52:19.594Z,12.73
2022-08-17T17:55:26.999Z,13.23
2022-08-17T17:58:48.881Z,11.75
2022-08-17T18:02:07.969Z,14.27
2022-08-17T18:05:09.820Z,9.63
2022-08-17T18:08:35.288Z,10.23
2022-08-17T18:11:33.088Z,10.25
2022-08-17T18:14:39.450Z,9.82
2022-08-17T18:17:27.782Z,9.27
2022-08-17T18:20:12.049Z,11.93
2022-08-17T18:23:00.751Z,8.80
2022-08-17T18:25:49.169Z,12.77
2022-08-17T18:28:50.733Z,11.18
2022-08-17T18:31:34.170Z,9.85
2022-08-17T18:34:46.581Z,9.63
2022-08-17T18:40:25.976Z,12.02
2022-08-17T18:43:53.103Z,11.85
2022-08-17T18:46:44.178Z,11.88
2022-08-17T18:49:34.648Z,13.82
2022-08-17T18:52:39.829Z,9.25
2022-08-17T18:55:22.042Z,18.55
2022-08-17T18:58:28.006Z,11.50
2022-08-17T19:01:41.930Z,11.20
2022-08-17T19:04:37.678Z,9.35
2022-08-17T19:07:35.732Z,9.13
2022-08-17T19:10:46.952Z,9.68
2022-08-17T19:14:11.978Z,9.55
2022-08-17T19:17:00.035Z,12.35
2022-08-17T19:20:11.341Z,9.07
2022-08-17T19:23:13.381Z,11.23
2022-08-17T19:26:00.970Z,8.57
2022-08-17T19:29:00.992Z,9.57
2022-08-17T19:31:42.923Z,9.32
2022-08-17T19:34:34.481Z,9.80
2022-08-17T19:37:43.116Z,11.40
2022-08-17T19:41:00.934Z,15.18
2022-08-17T19:44:01.141Z,9.27
2022-08-17T19:47:36.677Z,9.50
2022-08-17T19:50:54.252Z,14.13
2022-08-17T19:54:07.155Z,9.10
2022-08-17T19:57:15.759Z,10.65
2022-08-17T20:00:20.903Z,11.73
2022-08-17T20:03:27.868Z,7.63
2022-08-17T20:06:19.986Z,10.93
2022-08-17T20:09:18.993Z,8.82
2022-08-17T20:12:18.728Z,9.65
2022-08-17T20:15:11.096Z,8.88
2022-08-17T20:18:00.998Z,11.23
2022-08-17T20:21:19.862Z,11.27
2022-08-17T20:24:34.328Z,11.45
2022-08-17T20:30:45.002Z,14.48
2022-08-17T20:33:45.013Z,10.52
2022-08-17T20:36:33.997Z,10.88
2022-08-17T20:39:41.412Z,9.85
2022-08-17T20:42:29.993Z,10.23
2022-08-17T20:45:36.900Z,11.35
2022-08-17T20:48:38.658Z,13.05
2022-08-17T20:52:01.688Z,11.10
2022-08-17T20:54:55.147Z,9.85
2022-08-17T20:57:47.016Z,8.85
2022-08-17T21:00:39.036Z,10.73
2022-08-17T21:03:49.104Z,10.80
2022-08-17T21:06:33.202Z,10.52
2022-08-17T21:09:27.750Z,9.73
2022-08-17T21:12:10.529Z,8.32
2022-08-17T21:15:37.747Z,10.90
2022-08-17T21:18:26.766Z,9.15
2022-08-17T21:21:33.805Z,9.57
2022-08-17T21:24:34.084Z,8.32
2022-08-17T21:27:36.999Z,10.98
2022-08-17T21:30:55.615Z,8.55
2022-08-17T21:33:48.002Z,8.60
2022-08-17T21:36:29.968Z,11.00
2022-08-17T21:39:23.991Z,10.05
2022-08-17T21:42:14.220Z,8.85
2022-08-17T21:45:05.718Z,10.88
2022-08-17T21:47:53.151Z,12.35
2022-08-17T21:50:42.001Z,9.95
2022-08-17T21:53:37.423Z,8.38
2022-08-17T21:56:34.992Z,9.73
2022-08-17T21:59:26.915Z,8.65
2022-08-17T22:02:13.733Z,8.95
2022-08-17T22:05:16.875Z,11.63
2022-08-17T22:08:16.685Z,10.23
2022-08-17T22:11:16.027Z,8.93
2022-08-17T22:14:05.991Z,13.55
2022-08-17T22:16:49.735Z,10.02
2022-08-17T22:19:39.307Z,8.88
2022-08-17T22:22:35.887Z,9.80
2022-08-17T22:25:29.776Z,9.57
2022-08-17T22:28:18.013Z,8.93
2022-08-17T22:31:14.627Z,9.65
2022-08-17T22:34:17.598Z,8.43
2022-08-17T22:37:28.864Z,10.77
2022-08-17T22:40:11.097Z,9.15
2022-08-17T22:43:00.736Z,11.73
2022-08-17T22:45:52.510Z,8.82
2022-08-17T22:48:40.636Z,9.18
2022-08-17T22:51:30.339Z,9.52
2022-08-17T22:54:44.990Z,9.18
2022-08-17T22:57:47.454Z,8.55
2022-08-17T23:00:47.629Z,8.55
2022-08-17T23:03:42.839Z,9.63
2022-08-17T23:06:41.924Z,8.10
2022-08-17T23:09:37.829Z,9.20
2022-08-17T23:12:34.989Z,10.15
2022-08-17T23:15:27.907Z,11.65
2022-08-17T23:18:10.657Z,9.45
2022-08-17T23:21:00.002Z,13.93
2022-08-17T23:23:42.077Z,11.88
2022-08-17T23:26:37.662Z,9.65
2022-08-17T23:29:22.329Z,11.18
2022-08-17T23:32:06.715Z,10.15
2022-08-17T23:34:58.711Z,10.77
2022-08-17T23:37:49.006Z,9.10
2022-08-17T23:40:31.279Z,9.48
2022-08-17T23:43:25.228Z,8.88
2022-08-17T23:46:15.737Z,9.20
2022-08-17T23:48:57.844Z,9.32
2022-08-17T23:51:51.729Z,12.05
2022-08-17T23:54:44.620Z,8.18
2022-08-17T23:57:36.218Z,9.50
